Detalii statie AGRONOVA [00001CEC]

Toti senzorii

Date Temperatura solului [C]Precipitatii [mm]Voltaj baterie [mV]Leaf Wetness [Min]HC Air temperature [C]HC Relative humidity [%]Punctul de roua [C]
medieminmaxsumaultimatimpmedieminmaxmediemediemin
2019-04-19 19:00:00 14 13.9 14.3 0 6756 11.35 10.62 11.9 0 0 0
2019-04-19 20:00:00 13.7 13.5 14 0 6620 9.38 8.47 10.55 0 0 0
2019-04-19 21:00:00 13.3 13.2 13.6 0 6590 9.7 8.94 10.28 0 0 0
2019-04-19 22:00:00 13 12.9 13.2 0 6582 8.97 8.8 9.17 0 0 0
2019-04-19 23:00:00 12.7 12.7 13 0 6572 8.63 7.73 9.24 0 0 0
2019-04-20 00:00:00 12.5 12.3 12.7 0 6572 6.88 5.75 8.28 0 0 0
2019-04-20 01:00:00 12.2 12.2 12.4 0 6562 6.98 6.33 7.29 0 0 0
2019-04-20 02:00:00 12 12 12.2 0 6552 7.24 7.17 7.32 0 0 0
2019-04-20 03:00:00 11.8 11.7 12 0 6552 6.87 6.37 7.3 0 0 0
2019-04-20 04:00:00 11.7 11.5 11.9 0 6542 6 5.39 6.48 0 0 0
2019-04-20 05:00:00 11.5 11.4 11.7 0 6532 4.08 3.61 5.2 0 0 0
2019-04-20 06:00:00 11.3 11.2 11.4 0 6532 4.23 3.7 4.74 0 0 0
2019-04-20 07:00:00 11 11 11.3 0 6630 4.63 2.73 6 0 0 0
2019-04-20 08:00:00 11 10.8 11.2 0 6844 7.2 6.04 7.89 0 0 0
2019-04-20 09:00:00 11 11 11.2 0 7020 9.1 7.96 11.25 0 0 0
2019-04-20 10:00:00 11.3 11 11.7 0 7254 12.02 10.95 12.96 0 0 0
2019-04-20 11:00:00 11.9 11.6 12.1 0 7254 12.91 11.95 14.09 0 0 0
2019-04-20 12:00:00 12.4 12.2 12.7 0 7254 14.2 13.18 15.27 0 0 0
2019-04-20 13:00:00 13 12.7 13.2 0 7246 14.34 13.4 15.96 0 0 0
2019-04-20 13:45:00 13.6 13.6 13.6 6620 13.76 13.76 13.76 0 0 0
2019-04-20 14:00:00 13.7 13.7 13.7 0 6728 14.11 14.06 14.16 0 0
2019-04-20 15:00:00 13.7 13.6 13.8 0 7254 14.78 13.91 16.52 0 0 0
2019-04-20 16:00:00 13.8 13.7 13.9 0 7254 15.92 15.34 17.14 0 0 0
2019-04-20 17:00:00 13.9 13.8 14 0 7246 15.64 14.98 16.3 0 0 0
2019-04-20 18:00:00 13.9 13.8 14 0 7246 14.59 14.16 14.99 0 0 0
2019-04-20 19:00:00 13.6 13.5 13.9 0 6932 13.12 12.07 14.22 0 0 0
2019-04-20 20:00:00 13.3 13.2 13.6 0 6738 9.48 7.8 12 0 0 0
2019-04-20 21:00:00 12.9 12.7 13.2 0 6610 7.68 7.05 8.83 0 0 0
2019-04-20 22:00:00 12.5 12.3 12.8 0 6562 5.8 4.56 7.06 0 0 0
2019-04-20 23:00:00 12.2 12.1 12.4 0 6562 5.07 3.44 6.18 0 0 0
2019-04-21 00:00:00 11.8 11.7 12 0 6562 4.66 3.91 5.25 0 0 0
2019-04-21 01:00:00 11.5 11.4 11.8 0 6562 4.65 3.9 5.06 0 0 0
2019-04-21 02:00:00 11.2 11.1 11.4 0 6562 3.77 2.69 4.77 0 0 0
2019-04-21 03:00:00 11 11 11.2 0 6552 2.64 1.78 3.33 0 0 0
2019-04-21 04:00:00 10.8 10.7 10.9 0 6552 2.7 1.73 3.53 0 0 0
2019-04-21 05:00:00 10.5 10.5 10.7 0 6542 2.21 1.02 3.16 0 0 0
2019-04-21 06:00:00 10.3 10.3 10.6 0 6532 2.83 2.4 3.24 0 0 0
2019-04-21 07:00:00 10.1 10 10.3 0 6620 3.55 2.14 5.66 0 0 0
2019-04-21 08:00:00 10 10 10.2 0 6756 7.55 5.87 9.04 0 0 0
2019-04-21 09:00:00 10.3 10.1 10.5 0 6942 10.95 9.35 12.26 0 0 0
2019-04-21 10:00:00 10.7 10.5 11 0 7254 12.51 11.84 13.31 0 0 0
2019-04-21 11:00:00 11.2 11 11.5 0 7246 14.96 13.21 16.92 0 0 0
2019-04-21 12:00:00 11.9 11.7 12.3 0 7246 17.08 15.41 18.75 0 0 0
2019-04-21 13:00:00 12.5 12.4 12.7 0 7254 17.98 17.54 18.74 0 0 0
2019-04-21 14:00:00 13 12.8 13.3 0 7246 19.33 18.78 19.96 0 0 0
2019-04-21 15:00:00 13.6 13.4 13.9 0 7254 20.39 19.63 21.35 0 0 0
2019-04-21 16:00:00 14 13.9 14.2 0 7254 20.59 19.87 21.29 0 0 0
2019-04-21 17:00:00 14.2 14.1 14.3 0 7254 20.35 19.38 20.78 0 0 0